Towson, MD

2:50 PM EST on March 04, 2015 (GMT -0500)
Phillips Army Air Field | Change Station
CLOSE
Current Station
Airport
Location: Phillips Army Airfield,
Elevation: 59 ft
Nearby Weather Stations
Active Advisory: Winter Storm Warning

Elev 59 ft 39.47 °N, 76.17 °W | Updated 1 hour ago

Rain
Rain
41 °F
Feels Like 41 °F
N
0
Wind Variable Wind from North

Today
High -- | Low -- °F
--% Chance of Precip.
Yesterday
High -- | Low -- °F
Precip. -- in
6:35 AM 6:01 PM
Waxing Gibbous, 99% visible
Pressure 29.87 in
Visibility 2.0 miles
Clouds Overcast 7000 ft
Dew Point 39 °F
Humidity 93%
Rainfall 0.00 in
Snow Depth Not available.
UV 2 out of 12
Pollen .60 out of 12
Air Quality Not available.
Flu Activity Not available.
METAR KAPG 041848Z 00000KT 2SM -RA BR OVC070 05/04 A2987 RMK RAB48

More Conditions Fewer Conditions

Pressure 29.87 in
Visibility 2.0 miles
Clouds Overcast 7000 ft
Dew Point 39 °F
Humidity 93%
Rainfall 0.00 in
Snow Depth Not available.
UV 2 out of 12
Pollen .60 out of 12
Air Quality Not available.
Flu Activity Not available.
METAR KAPG 041848Z 00000KT 2SM -RA BR OVC070 05/04 A2987 RMK RAB48

More Conditions Fewer Conditions

10-Day Weather Forecast

Almanac

Astronomy

Mar. 04, 2015 Rise Set
Actual Time
Civil Twilight
Nautical Twilight
Astronomical Twilight
Moon
Length of Visible Light
Length of Day
Tomorrow will be .
, % of the Moon is Illuminated

Today's Extremes

State Highs State Lows

Community

WunderPhotos

Upload Photos

1,802,561 photos uploaded!

WunderBlogs® & News

Nearby

Air Quality

  Air Quality AQ Index Pollutant
Not available.

Snow Depth

Station Depth Elevation

Earthquake Activity

City Distance Mag. Time & Date
Minimum magnitude displayed is 2.5.

Coastal Water Temperatures

Place Temperature

Nearby Weather Stations

Winter Storm Warning
Statement as of 1:31 PM EST on March 04, 2015

... Winter Storm Warning remains in effect from 10 PM this evening
to 7 PM EST Thursday...

* precipitation types... wintry mix late this evening... then
snow... heavy at times.

* Accumulations... snow accumulation of 6 to 10 inches.

* Timing... rain changes to wintry mix late this evening then all
snow through Thursday. Snow heaviest Thursday late morning
through mid afternoon.

* Temperatures... in the lower 30s... dropping into the lower 20s.

* Winds... north 10 to 15 mph with gusts up to 20 mph.

* Impacts... roads will be snow covered... making travel dangerous.

Precautionary/preparedness actions...

A Winter Storm Warning for heavy snow means severe winter weather
conditions are expected or occurring. Significant amounts of snow
are forecast that will make travel dangerous. Only travel in an
emergency. If you must travel... keep an extra flashlight...
food... and water in your vehicle in case of an emergency.